createdAt,value
2022-08-12T00:01:13.538Z,5.97
2022-08-12T00:03:59.840Z,8.43
2022-08-12T00:06:47.368Z,9.25
2022-08-12T00:09:33.345Z,14.98
2022-08-12T00:12:19.758Z,11.65
2022-08-12T00:15:05.146Z,6.45
2022-08-12T00:17:52.247Z,4.40
2022-08-12T00:20:37.904Z,7.88
2022-08-12T00:23:23.738Z,12.27
2022-08-12T00:26:22.836Z,9.48
2022-08-12T00:29:12.128Z,5.93
2022-08-12T00:32:00.679Z,9.02
2022-08-12T00:34:49.201Z,7.65
2022-08-12T00:37:39.879Z,10.82
2022-08-12T00:40:29.035Z,10.55
2022-08-12T00:42:57.673Z,6.32
2022-08-12T00:45:25.517Z,8.70
2022-08-12T00:47:53.781Z,8.73
2022-08-12T00:50:22.743Z,10.52
2022-08-12T00:52:52.574Z,10.55
2022-08-12T00:55:20.378Z,12.25
2022-08-12T00:57:50.012Z,8.82
2022-08-12T01:00:21.689Z,5.10
2022-08-12T01:02:57.542Z,8.77
2022-08-12T01:05:44.930Z,10.23
2022-08-12T01:08:35.745Z,7.78
2022-08-12T01:11:24.819Z,7.63
2022-08-12T01:13:52.785Z,7.82
2022-08-12T01:16:24.992Z,6.15
2022-08-12T01:18:54.366Z,10.38
2022-08-12T01:21:27.758Z,9.10
2022-08-12T01:23:54.707Z,6.90
2022-08-12T01:26:24.162Z,8.98
2022-08-12T01:29:01.881Z,9.93
2022-08-12T01:31:30.017Z,7.32
2022-08-12T01:34:04.990Z,5.82
2022-08-12T01:37:02.192Z,7.07
2022-08-12T01:39:35.709Z,8.85
2022-08-12T01:42:07.427Z,8.18
2022-08-12T01:44:37.074Z,4.60
2022-08-12T01:47:31.131Z,7.85
2022-08-12T01:50:27.034Z,9.73
2022-08-12T01:52:53.894Z,8.23
2022-08-12T01:55:28.572Z,12.60
2022-08-12T01:58:14.354Z,13.63
2022-08-12T02:00:55.383Z,11.98
2022-08-12T02:03:26.100Z,9.23
2022-08-12T02:06:25.145Z,10.43
2022-08-12T02:09:17.987Z,11.75
2022-08-12T02:12:09.030Z,12.68
2022-08-12T02:14:42.208Z,12.05
2022-08-12T02:17:55.421Z,11.85
2022-08-12T02:21:02.552Z,9.18
2022-08-12T02:23:31.733Z,6.60
2022-08-12T02:26:05.198Z,9.40
2022-08-12T02:28:33.356Z,12.27
2022-08-12T02:31:06.488Z,13.00
2022-08-12T02:33:34.380Z,8.32
2022-08-12T02:36:02.666Z,11.80
2022-08-12T02:38:33.938Z,9.68
2022-08-12T02:41:04.856Z,7.03
2022-08-12T02:43:50.273Z,7.38
2022-08-12T02:46:50.271Z,13.18
2022-08-12T02:49:31.497Z,9.25
2022-08-12T02:52:00.222Z,8.15
2022-08-12T02:54:27.638Z,11.50
2022-08-12T02:56:54.800Z,14.90
2022-08-12T02:59:26.508Z,12.68
2022-08-12T03:01:56.761Z,8.27
2022-08-12T03:04:26.795Z,10.10
2022-08-12T03:07:04.871Z,10.75
2022-08-12T03:09:55.349Z,9.90
2022-08-12T03:12:25.121Z,10.30
2022-08-12T03:14:55.103Z,9.20
2022-08-12T03:17:43.326Z,10.90
2022-08-12T03:20:14.411Z,8.80
2022-08-12T03:22:43.610Z,13.63
2022-08-12T03:25:16.235Z,8.85
2022-08-12T03:27:49.946Z,9.88
2022-08-12T03:30:21.768Z,12.48
2022-08-12T03:32:51.086Z,11.55
2022-08-12T03:35:40.874Z,9.60
2022-08-12T03:38:12.393Z,8.98
2022-08-12T03:41:11.718Z,8.43
2022-08-12T03:44:06.456Z,9.23
2022-08-12T03:46:57.287Z,12.63
2022-08-12T03:49:43.202Z,7.72
2022-08-12T03:52:28.649Z,9.85
2022-08-12T03:55:14.246Z,8.95
2022-08-12T03:58:00.041Z,9.85
2022-08-12T04:00:28.474Z,7.65
2022-08-12T04:03:02.637Z,19.20
2022-08-12T04:05:55.851Z,13.68
2022-08-12T04:08:19.486Z,16.25
2022-08-12T04:11:05.286Z,8.77
2022-08-12T04:13:32.237Z,13.63
2022-08-12T04:16:02.204Z,13.80
2022-08-12T04:18:29.763Z,8.70
2022-08-12T04:20:57.204Z,10.43
2022-08-12T04:23:25.805Z,22.08
2022-08-12T04:25:52.871Z,31.60
2022-08-12T04:28:27.842Z,30.00
2022-08-12T04:30:58.153Z,17.67
2022-08-12T04:33:25.732Z,33.20
2022-08-12T04:35:54.231Z,28.25
2022-08-12T04:38:23.310Z,36.60
2022-08-12T04:40:51.796Z,49.75
2022-08-12T04:43:59.611Z,35.13
2022-08-12T04:46:06.090Z,24.60
2022-08-12T04:48:33.259Z,16.52
2022-08-12T04:51:00.623Z,42.03
2022-08-12T04:53:28.358Z,64.05
2022-08-12T04:55:55.412Z,59.42
2022-08-12T04:58:29.537Z,74.88
2022-08-12T05:00:57.623Z,70.50
2022-08-12T05:03:26.647Z,35.05
2022-08-12T05:05:56.788Z,34.17
2022-08-12T05:08:25.591Z,34.05
2022-08-12T05:10:53.236Z,25.63
2022-08-12T05:13:23.058Z,35.30
2022-08-12T05:16:05.126Z,23.15
2022-08-12T05:18:39.497Z,26.85
2022-08-12T05:21:09.068Z,39.03
2022-08-12T05:23:37.558Z,67.43
2022-08-12T05:26:06.156Z,83.43
2022-08-12T05:28:33.747Z,51.80
2022-08-12T05:31:04.352Z,48.78
2022-08-12T05:33:38.429Z,23.10
2022-08-12T05:36:13.565Z,12.32
2022-08-12T05:38:57.237Z,24.80
2022-08-12T05:41:35.287Z,49.67
2022-08-12T05:44:03.925Z,33.53
2022-08-12T05:46:32.371Z,25.50
2022-08-12T05:49:00.814Z,15.18
2022-08-12T05:51:41.102Z,17.90
2022-08-12T05:54:11.286Z,15.43
2022-08-12T05:56:39.397Z,8.05
2022-08-12T05:59:07.794Z,6.65
2022-08-12T06:02:11.589Z,8.70
2022-08-12T06:04:22.516Z,14.80
2022-08-12T06:06:53.451Z,13.55
2022-08-12T06:09:22.703Z,14.48
2022-08-12T06:12:04.267Z,7.28
2022-08-12T06:14:37.795Z,13.38
2022-08-12T06:17:10.284Z,13.65
2022-08-12T06:20:27.546Z,14.90
2022-08-12T06:22:26.733Z,13.77
2022-08-12T06:24:53.812Z,10.82
2022-08-12T06:27:21.649Z,7.32
2022-08-12T06:30:08.874Z,9.75
2022-08-12T06:32:42.899Z,12.82
2022-08-12T06:35:23.932Z,11.63
2022-08-12T06:37:57.670Z,6.53
2022-08-12T06:40:43.799Z,11.00
2022-08-12T06:43:10.909Z,4.68
2022-08-12T06:45:47.346Z,14.43
2022-08-12T06:48:14.567Z,8.15
2022-08-12T06:50:42.534Z,11.30
2022-08-12T06:53:11.302Z,14.88
2022-08-12T06:55:56.756Z,8.95
2022-08-12T06:58:29.512Z,10.65
2022-08-12T07:00:58.100Z,6.82
2022-08-12T07:03:29.865Z,10.32
2022-08-12T07:06:03.747Z,5.22
2022-08-12T07:08:33.319Z,5.88
2022-08-12T07:11:04.248Z,7.35
2022-08-12T07:14:11.481Z,8.10
2022-08-12T07:16:50.688Z,10.23
2022-08-12T07:19:18.179Z,7.93
2022-08-12T07:22:02.421Z,11.82
2022-08-12T07:24:30.521Z,9.43
2022-08-12T07:26:58.310Z,7.85
2022-08-12T07:30:02.748Z,6.22
2022-08-12T07:32:15.965Z,7.65
2022-08-12T07:34:43.387Z,5.50
2022-08-12T07:37:10.604Z,8.18
2022-08-12T07:39:50.643Z,8.35
2022-08-12T07:42:24.667Z,6.53
2022-08-12T07:44:53.774Z,9.40
2022-08-12T07:47:20.812Z,7.47
2022-08-12T07:50:04.480Z,5.22
2022-08-12T07:52:38.719Z,13.70
2022-08-12T07:55:06.385Z,12.10
2022-08-12T07:57:33.710Z,17.58
2022-08-12T08:00:06.071Z,9.10
2022-08-12T08:02:37.201Z,6.63
2022-08-12T08:05:05.465Z,12.10
2022-08-12T08:07:32.573Z,13.00
2022-08-12T08:10:02.315Z,6.53
2022-08-12T08:12:48.803Z,4.95
2022-08-12T08:15:16.492Z,1.88
2022-08-12T08:18:04.440Z,8.40
2022-08-12T08:20:41.108Z,2.67
2022-08-12T08:23:15.477Z,7.03
2022-08-12T08:25:43.977Z,5.32
2022-08-12T08:28:17.239Z,11.45
2022-08-12T08:30:46.034Z,5.07
2022-08-12T08:33:24.787Z,16.08
2022-08-12T08:36:02.243Z,13.82
2022-08-12T08:38:33.031Z,4.68
2022-08-12T08:42:17.518Z,7.50
2022-08-12T08:44:11.325Z,3.85
2022-08-12T08:46:40.595Z,4.03
2022-08-12T08:49:08.359Z,3.47
2022-08-12T08:51:36.530Z,2.00
2022-08-12T08:54:03.626Z,3.42
2022-08-12T08:56:30.592Z,3.05
2022-08-12T08:58:58.043Z,5.05
2022-08-12T09:01:25.998Z,7.72
2022-08-12T09:05:09.888Z,16.40
2022-08-12T09:06:53.454Z,2.35
2022-08-12T09:09:21.461Z,3.65
2022-08-12T09:12:12.178Z,2.10
2022-08-12T09:17:42.039Z,4.70
2022-08-12T09:23:07.843Z,10.32
2022-08-12T09:25:48.525Z,6.32
2022-08-12T09:28:18.495Z,4.78
2022-08-12T09:30:53.875Z,9.63
2022-08-12T09:34:26.571Z,6.63
2022-08-12T09:36:31.352Z,4.28
2022-08-12T09:40:04.998Z,4.88
2022-08-12T09:42:38.733Z,6.45
2022-08-12T09:45:24.565Z,7.15
2022-08-12T09:48:09.957Z,10.55
2022-08-12T09:50:55.458Z,3.92
2022-08-12T09:53:36.421Z,6.38
2022-08-12T09:56:57.122Z,7.50
2022-08-12T09:59:02.074Z,6.03
2022-08-12T10:01:35.492Z,8.80
2022-08-12T10:04:19.704Z,6.90
2022-08-12T10:06:53.969Z,3.90
2022-08-12T10:09:21.527Z,5.60
2022-08-12T10:12:12.096Z,9.55
2022-08-12T10:14:50.375Z,4.65
2022-08-12T10:17:22.811Z,4.82
2022-08-12T10:19:52.865Z,6.00
2022-08-12T10:22:40.089Z,17.02
2022-08-12T10:26:18.195Z,8.43
2022-08-12T10:28:38.065Z,8.32
2022-08-12T10:31:05.989Z,4.15
2022-08-12T10:33:50.660Z,3.17
2022-08-12T10:36:40.127Z,7.38
2022-08-12T10:40:01.780Z,5.32
2022-08-12T10:42:29.273Z,5.72
2022-08-12T10:45:01.170Z,2.20
2022-08-12T10:48:07.269Z,6.50
2022-08-12T10:50:29.646Z,4.95
2022-08-12T10:53:08.852Z,6.10
2022-08-12T10:55:36.558Z,2.45
2022-08-12T10:58:27.387Z,4.47
2022-08-12T11:01:25.600Z,10.18
2022-08-12T11:04:23.561Z,7.57
2022-08-12T11:07:06.908Z,39.90
2022-08-12T11:09:55.823Z,5.70
2022-08-12T11:12:56.258Z,5.97
2022-08-12T11:14:59.297Z,5.13
2022-08-12T11:17:43.095Z,5.85
2022-08-12T11:20:15.185Z,5.75
2022-08-12T11:22:42.710Z,7.93
2022-08-12T11:25:25.467Z,3.33
2022-08-12T11:28:13.324Z,4.63
2022-08-12T11:30:41.265Z,5.90
2022-08-12T11:33:11.816Z,4.45
2022-08-12T11:35:42.992Z,7.38
2022-08-12T11:38:11.286Z,7.07
2022-08-12T11:40:42.498Z,2.67
2022-08-12T11:43:18.947Z,8.70
2022-08-12T11:45:53.299Z,8.73
2022-08-12T11:48:26.775Z,5.55
2022-08-12T11:50:55.143Z,15.20
2022-08-12T11:53:57.284Z,6.18
2022-08-12T11:56:11.436Z,3.83
2022-08-12T12:00:29.609Z,6.88
2022-08-12T12:02:03.414Z,15.45
2022-08-12T12:04:12.986Z,10.80
2022-08-12T12:07:07.388Z,3.53
2022-08-12T12:09:53.440Z,18.55
2022-08-12T12:12:23.306Z,9.85
2022-08-12T12:14:54.153Z,10.23
2022-08-12T12:17:25.377Z,12.90
2022-08-12T12:19:53.914Z,5.88
2022-08-12T12:22:23.707Z,6.93
2022-08-12T12:24:59.147Z,15.50
2022-08-12T12:28:05.041Z,7.05
2022-08-12T12:30:37.259Z,6.38
2022-08-12T12:33:05.883Z,3.95
2022-08-12T12:36:16.578Z,3.13
2022-08-12T12:38:25.315Z,7.10
2022-08-12T12:40:53.071Z,7.97
2022-08-12T12:43:29.073Z,11.43
2022-08-12T12:46:08.718Z,3.22
2022-08-12T12:48:36.189Z,9.63
2022-08-12T12:51:49.482Z,2.65
2022-08-12T12:54:09.298Z,9.75
2022-08-12T12:56:42.696Z,6.45
2022-08-12T12:59:54.840Z,8.27
2022-08-12T13:02:08.160Z,15.85
2022-08-12T13:04:37.453Z,12.60
2022-08-12T13:07:05.729Z,5.97
2022-08-12T13:09:36.093Z,9.85
2022-08-12T13:12:08.985Z,17.83
2022-08-12T13:14:39.923Z,8.35
2022-08-12T13:17:14.585Z,6.70
2022-08-12T13:19:46.811Z,10.20
2022-08-12T13:22:21.728Z,6.53
2022-08-12T13:24:55.442Z,9.30
2022-08-12T13:27:35.430Z,4.78
2022-08-12T13:30:06.823Z,10.38
2022-08-12T13:32:34.239Z,6.32
2022-08-12T13:35:04.703Z,7.05
2022-08-12T13:37:55.924Z,8.90
2022-08-12T13:40:33.551Z,8.77
2022-08-12T13:43:02.174Z,8.43
2022-08-12T13:45:33.538Z,7.82
2022-08-12T13:48:06.314Z,4.25
2022-08-12T13:50:41.478Z,8.55
2022-08-12T13:53:24.281Z,8.60
2022-08-12T13:55:59.319Z,10.68
2022-08-12T13:58:28.752Z,9.07
2022-08-12T14:00:58.624Z,8.05
2022-08-12T14:03:28.381Z,12.27
2022-08-12T14:05:59.486Z,9.13
2022-08-12T14:08:34.459Z,8.82
2022-08-12T14:11:02.198Z,8.52
2022-08-12T14:14:03.168Z,5.88
2022-08-12T14:16:46.782Z,5.78
2022-08-12T14:19:10.453Z,2.85
2022-08-12T14:22:01.419Z,3.67
2022-08-12T14:24:35.597Z,4.60
2022-08-12T14:27:08.996Z,12.00
2022-08-12T14:30:05.450Z,11.13
2022-08-12T14:32:35.815Z,6.85
2022-08-12T14:35:09.273Z,7.00
2022-08-12T14:37:56.236Z,4.72
2022-08-12T14:40:29.149Z,6.97
2022-08-12T14:42:58.801Z,8.55
2022-08-12T14:45:44.470Z,8.18
2022-08-12T14:48:15.640Z,4.43
2022-08-12T14:51:09.705Z,6.25
2022-08-12T14:59:57.093Z,6.85
2022-08-12T15:02:21.108Z,9.23
2022-08-12T15:04:59.002Z,9.07
2022-08-12T15:07:43.821Z,7.97
2022-08-12T15:10:25.366Z,6.35
2022-08-12T15:12:59.776Z,5.07
2022-08-12T15:15:29.604Z,4.53
2022-08-12T15:18:02.182Z,6.63
2022-08-12T15:20:33.521Z,6.20
2022-08-12T15:23:18.055Z,7.38
2022-08-12T15:25:59.783Z,4.88
2022-08-12T15:28:32.655Z,7.90
2022-08-12T15:31:00.833Z,9.80
2022-08-12T15:33:45.078Z,6.47
2022-08-12T15:36:14.791Z,7.88
2022-08-12T15:38:46.955Z,6.38
2022-08-12T15:41:14.742Z,10.30
2022-08-12T15:44:15.823Z,16.00
2022-08-12T15:46:32.401Z,9.48
2022-08-12T15:48:59.541Z,7.90
2022-08-12T15:51:59.324Z,7.45
2022-08-12T15:54:31.075Z,5.63
2022-08-12T15:57:08.294Z,7.85
2022-08-12T16:00:00.070Z,8.43
2022-08-12T16:02:29.318Z,10.18
2022-08-12T16:04:58.526Z,10.43
2022-08-12T16:07:32.542Z,6.65
2022-08-12T16:10:08.828Z,8.50
2022-08-12T16:12:54.882Z,7.88
2022-08-12T16:15:25.148Z,8.98
2022-08-12T16:18:15.427Z,12.05
2022-08-12T16:20:46.824Z,9.90
2022-08-12T16:23:36.006Z,9.38
2022-08-12T16:26:15.463Z,8.43
2022-08-12T16:28:48.085Z,6.22
2022-08-12T16:31:23.050Z,9.00
2022-08-12T16:33:58.720Z,14.65
2022-08-12T16:36:28.459Z,8.73
2022-08-12T16:38:55.403Z,15.68
2022-08-12T16:41:23.048Z,9.15
2022-08-12T16:43:53.044Z,8.35
2022-08-12T16:46:31.319Z,9.60
2022-08-12T16:49:04.123Z,13.75
2022-08-12T16:51:40.478Z,7.70
2022-08-12T16:54:14.381Z,13.55
2022-08-12T16:56:51.202Z,9.70
2022-08-12T16:59:31.203Z,9.25
2022-08-12T17:02:31.780Z,19.30
2022-08-12T17:05:03.247Z,22.98
2022-08-12T17:07:43.268Z,12.23
2022-08-12T17:10:13.931Z,12.77
2022-08-12T17:12:45.530Z,8.63
2022-08-12T17:15:21.348Z,9.93
2022-08-12T17:18:38.876Z,13.45
2022-08-12T17:20:49.424Z,11.77
2022-08-12T17:23:18.067Z,14.77
2022-08-12T17:25:52.799Z,19.92
2022-08-12T17:28:22.498Z,11.57
2022-08-12T17:30:57.472Z,14.30
2022-08-12T17:33:27.872Z,21.00
2022-08-12T17:36:05.829Z,16.33
2022-08-12T17:38:36.418Z,13.68
2022-08-12T17:41:08.116Z,16.00
2022-08-12T17:43:58.560Z,17.15
2022-08-12T17:46:33.746Z,21.45
2022-08-12T17:49:06.918Z,20.02
2022-08-12T17:52:02.009Z,19.42
2022-08-12T17:54:31.343Z,20.15
2022-08-12T17:57:00.313Z,14.05
2022-08-12T17:59:47.670Z,16.95
2022-08-12T18:02:17.913Z,13.90
2022-08-12T18:05:04.526Z,17.65
2022-08-12T18:07:38.702Z,20.15
2022-08-12T18:10:07.105Z,16.30
2022-08-12T18:12:42.703Z,17.45
2022-08-12T18:15:26.808Z,14.18
2022-08-12T18:18:16.727Z,17.27
2022-08-12T18:20:46.624Z,21.05
2022-08-12T18:23:13.822Z,13.35
2022-08-12T18:26:14.363Z,15.43
2022-08-12T18:28:48.375Z,9.93
2022-08-12T18:31:17.800Z,14.75
2022-08-12T18:33:46.510Z,33.97
2022-08-12T18:36:14.682Z,28.00
2022-08-12T18:38:55.885Z,19.55
2022-08-12T18:41:34.494Z,23.23
2022-08-12T18:44:12.132Z,22.08
2022-08-12T18:46:54.035Z,16.00
2022-08-12T18:49:39.308Z,16.90
2022-08-12T18:52:11.449Z,26.23
2022-08-12T18:54:49.253Z,28.77
2022-08-12T18:58:00.416Z,18.33
2022-08-12T19:00:17.942Z,21.10
2022-08-12T19:02:49.474Z,20.58
2022-08-12T19:05:19.723Z,14.23
2022-08-12T19:08:01.304Z,50.75
2022-08-12T19:10:31.516Z,49.83
2022-08-12T19:13:21.451Z,24.38
2022-08-12T19:15:57.622Z,33.17
2022-08-12T19:18:29.288Z,36.38
2022-08-12T19:20:58.607Z,38.85
2022-08-12T19:23:35.083Z,30.42
2022-08-12T19:26:04.542Z,36.95
2022-08-12T19:28:35.502Z,25.60
2022-08-12T19:31:56.328Z,22.38
2022-08-12T19:37:38.310Z,24.50
2022-08-12T19:40:30.584Z,23.08
2022-08-12T19:43:01.852Z,24.65
2022-08-12T19:45:43.568Z,24.90
2022-08-12T19:48:19.616Z,21.42
2022-08-12T19:50:53.058Z,16.70
2022-08-12T19:53:22.681Z,19.38
2022-08-12T19:55:53.685Z,13.90
2022-08-12T19:58:21.827Z,14.43
2022-08-12T20:00:56.431Z,16.67
2022-08-12T20:03:39.282Z,11.77
2022-08-12T20:06:15.462Z,15.10
2022-08-12T20:08:55.501Z,15.45
2022-08-12T20:12:13.025Z,12.25
2022-08-12T20:14:17.986Z,11.55
2022-08-12T20:16:53.098Z,8.60
2022-08-12T20:19:53.227Z,12.88
2022-08-12T20:22:24.531Z,7.97
2022-08-12T20:25:01.578Z,11.32
2022-08-12T20:28:02.667Z,7.45
2022-08-12T20:30:52.667Z,10.07
2022-08-12T20:33:17.770Z,6.18
2022-08-12T20:36:13.574Z,6.57
2022-08-12T20:38:39.630Z,14.25
2022-08-12T20:41:18.910Z,5.80
2022-08-12T20:43:52.026Z,12.48
2022-08-12T20:46:20.006Z,10.40
2022-08-12T20:48:55.038Z,5.47
2022-08-12T20:51:27.751Z,8.30
2022-08-12T20:53:59.022Z,9.35
2022-08-12T20:56:35.132Z,7.80
2022-08-12T20:59:14.876Z,7.55
2022-08-12T21:01:48.652Z,11.35
2022-08-12T21:04:38.066Z,7.90
2022-08-12T21:07:11.303Z,5.20
2022-08-12T21:09:44.677Z,8.10
2022-08-12T21:12:28.309Z,10.60
2022-08-12T21:15:23.515Z,9.98
2022-08-12T21:18:11.094Z,9.63
2022-08-12T21:20:50.848Z,6.10
2022-08-12T21:23:21.177Z,10.40
2022-08-12T21:25:51.042Z,9.88
2022-08-12T21:28:20.777Z,9.57
2022-08-12T21:31:10.540Z,8.23
2022-08-12T21:33:58.738Z,7.30
2022-08-12T21:36:34.459Z,17.50
2022-08-12T21:39:18.015Z,11.85
2022-08-12T21:41:51.157Z,10.40
2022-08-12T21:44:24.025Z,7.30
2022-08-12T21:47:21.828Z,7.45
2022-08-12T21:50:04.368Z,12.82
2022-08-12T21:52:40.800Z,10.60
2022-08-12T21:55:18.958Z,7.40
2022-08-12T21:57:53.227Z,9.13
2022-08-12T22:00:32.123Z,7.25
2022-08-12T22:04:02.162Z,9.18
2022-08-12T22:06:31.093Z,11.75
2022-08-12T22:09:16.159Z,11.20
2022-08-12T22:11:59.068Z,11.20
2022-08-12T22:14:28.734Z,10.60
2022-08-12T22:17:00.632Z,10.30
2022-08-12T22:19:28.003Z,5.60
2022-08-12T22:21:58.438Z,8.20
2022-08-12T22:24:29.762Z,8.82
2022-08-12T22:27:14.318Z,11.38
2022-08-12T22:30:08.421Z,7.45
2022-08-12T22:32:44.746Z,11.63
2022-08-12T22:35:55.294Z,13.93
2022-08-12T22:38:21.144Z,6.75
2022-08-12T22:40:49.947Z,8.18
2022-08-12T22:43:59.898Z,5.72
2022-08-12T22:46:32.860Z,11.13
2022-08-12T22:48:59.909Z,9.30
2022-08-12T22:51:37.116Z,7.28
2022-08-12T22:54:35.155Z,8.90
2022-08-12T22:57:12.418Z,16.67
2022-08-12T22:59:55.121Z,14.05
2022-08-12T23:02:28.897Z,6.13
2022-08-12T23:04:58.583Z,11.23
2022-08-12T23:07:25.766Z,7.97
2022-08-12T23:09:54.710Z,11.38
2022-08-12T23:12:58.642Z,7.93
2022-08-12T23:15:25.892Z,17.08
2022-08-12T23:17:57.842Z,9.25
2022-08-12T23:20:26.895Z,9.23
2022-08-12T23:23:05.930Z,9.80
2022-08-12T23:25:54.541Z,7.88
2022-08-12T23:28:42.319Z,8.25
2022-08-12T23:31:09.690Z,12.20
2022-08-12T23:34:01.471Z,16.98
2022-08-12T23:36:31.845Z,19.30
2022-08-12T23:40:14.840Z,14.45
2022-08-12T23:42:17.880Z,15.68
2022-08-12T23:44:48.705Z,10.23
2022-08-12T23:47:21.303Z,7.18
2022-08-12T23:49:57.601Z,11.02
2022-08-12T23:52:34.121Z,11.30
2022-08-12T23:55:23.043Z,11.95
2022-08-12T23:58:22.953Z,9.35
